sensor_id;sensor_type;location;lat;lon;timestamp;P1;durP1;ratioP1;P2;durP2;ratioP2
77453;SDS011;66538;53.150;18.160;2023-06-26T00:01:00;6.00;;;2.90;;
77453;SDS011;66538;53.150;18.160;2023-06-26T00:03:47;6.60;;;3.30;;
77453;SDS011;66538;53.150;18.160;2023-06-26T00:06:14;5.50;;;3.10;;
77453;SDS011;66538;53.150;18.160;2023-06-26T00:08:40;5.50;;;3.00;;
77453;SDS011;66538;53.150;18.160;2023-06-26T00:11:07;11.20;;;3.50;;
77453;SDS011;66538;53.150;18.160;2023-06-26T00:13:34;6.10;;;3.60;;
77453;SDS011;66538;53.150;18.160;2023-06-26T00:16:00;6.20;;;3.20;;
77453;SDS011;66538;53.150;18.160;2023-06-26T00:18:29;5.40;;;3.20;;
77453;SDS011;66538;53.150;18.160;2023-06-26T00:20:56;5.30;;;3.00;;
77453;SDS011;66538;53.150;18.160;2023-06-26T00:23:22;5.70;;;3.20;;
77453;SDS011;66538;53.150;18.160;2023-06-26T00:25:49;7.80;;;3.70;;
77453;SDS011;66538;53.150;18.160;2023-06-26T00:28:15;5.50;;;3.30;;
77453;SDS011;66538;53.150;18.160;2023-06-26T00:30:42;5.50;;;3.20;;
77453;SDS011;66538;53.150;18.160;2023-06-26T00:33:08;5.60;;;3.30;;
77453;SDS011;66538;53.150;18.160;2023-06-26T00:35:35;6.20;;;3.80;;
77453;SDS011;66538;53.150;18.160;2023-06-26T00:38:04;6.70;;;3.60;;
77453;SDS011;66538;53.150;18.160;2023-06-26T00:40:30;6.20;;;3.70;;
77453;SDS011;66538;53.150;18.160;2023-06-26T00:42:57;7.30;;;3.40;;
77453;SDS011;66538;53.150;18.160;2023-06-26T00:45:24;5.80;;;3.30;;
77453;SDS011;66538;53.150;18.160;2023-06-26T00:47:52;7.20;;;3.50;;
77453;SDS011;66538;53.150;18.160;2023-06-26T00:50:19;7.90;;;4.00;;
77453;SDS011;66538;53.150;18.160;2023-06-26T00:52:46;6.30;;;3.50;;
77453;SDS011;66538;53.150;18.160;2023-06-26T00:55:13;6.10;;;3.30;;
77453;SDS011;66538;53.150;18.160;2023-06-26T00:57:40;6.80;;;3.60;;
77453;SDS011;66538;53.150;18.160;2023-06-26T01:00:07;6.60;;;3.40;;
77453;SDS011;66538;53.150;18.160;2023-06-26T01:02:36;5.90;;;3.30;;
77453;SDS011;66538;53.150;18.160;2023-06-26T01:05:05;6.60;;;3.40;;
77453;SDS011;66538;53.150;18.160;2023-06-26T01:07:35;8.00;;;3.80;;
77453;SDS011;66538;53.150;18.160;2023-06-26T01:10:03;6.90;;;3.80;;
77453;SDS011;66538;53.150;18.160;2023-06-26T01:12:34;6.50;;;3.50;;
77453;SDS011;66538;53.150;18.160;2023-06-26T01:15:02;6.80;;;3.80;;
77453;SDS011;66538;53.150;18.160;2023-06-26T01:17:30;6.30;;;3.50;;
77453;SDS011;66538;53.150;18.160;2023-06-26T01:19:58;6.10;;;3.70;;
77453;SDS011;66538;53.150;18.160;2023-06-26T01:25:15;7.10;;;3.80;;
77453;SDS011;66538;53.150;18.160;2023-06-26T01:27:56;7.00;;;4.00;;
77453;SDS011;66538;53.150;18.160;2023-06-26T01:30:23;8.30;;;3.90;;
77453;SDS011;66538;53.150;18.160;2023-06-26T01:32:51;5.90;;;4.00;;
77453;SDS011;66538;53.150;18.160;2023-06-26T01:35:18;7.20;;;4.00;;
77453;SDS011;66538;53.150;18.160;2023-06-26T01:37:46;7.00;;;3.90;;
77453;SDS011;66538;53.150;18.160;2023-06-26T01:40:12;6.40;;;4.10;;
77453;SDS011;66538;53.150;18.160;2023-06-26T01:42:39;7.00;;;4.00;;
77453;SDS011;66538;53.150;18.160;2023-06-26T01:45:14;7.10;;;3.70;;
77453;SDS011;66538;53.150;18.160;2023-06-26T01:47:49;7.10;;;4.00;;
77453;SDS011;66538;53.150;18.160;2023-06-26T01:50:21;6.70;;;3.90;;
77453;SDS011;66538;53.150;18.160;2023-06-26T01:53:10;6.60;;;4.10;;
77453;SDS011;66538;53.150;18.160;2023-06-26T01:58:32;7.70;;;3.90;;
77453;SDS011;66538;53.150;18.160;2023-06-26T02:01:01;7.00;;;3.50;;
77453;SDS011;66538;53.150;18.160;2023-06-26T02:03:29;7.40;;;4.40;;
77453;SDS011;66538;53.150;18.160;2023-06-26T02:05:56;7.10;;;4.10;;
77453;SDS011;66538;53.150;18.160;2023-06-26T02:08:23;8.20;;;3.70;;
77453;SDS011;66538;53.150;18.160;2023-06-26T02:10:49;8.20;;;3.80;;
77453;SDS011;66538;53.150;18.160;2023-06-26T02:13:16;7.40;;;4.30;;
77453;SDS011;66538;53.150;18.160;2023-06-26T02:15:43;7.10;;;4.40;;
77453;SDS011;66538;53.150;18.160;2023-06-26T02:18:10;6.70;;;3.90;;
77453;SDS011;66538;53.150;18.160;2023-06-26T02:20:36;7.10;;;3.90;;
77453;SDS011;66538;53.150;18.160;2023-06-26T02:23:03;6.80;;;4.00;;
77453;SDS011;66538;53.150;18.160;2023-06-26T02:25:30;6.50;;;3.60;;
77453;SDS011;66538;53.150;18.160;2023-06-26T02:27:56;6.90;;;4.00;;
77453;SDS011;66538;53.150;18.160;2023-06-26T02:30:23;7.70;;;3.90;;
77453;SDS011;66538;53.150;18.160;2023-06-26T02:32:49;8.20;;;4.50;;
77453;SDS011;66538;53.150;18.160;2023-06-26T02:37:44;6.80;;;3.70;;
77453;SDS011;66538;53.150;18.160;2023-06-26T02:40:11;8.30;;;4.30;;
77453;SDS011;66538;53.150;18.160;2023-06-26T02:42:39;7.50;;;4.20;;
77453;SDS011;66538;53.150;18.160;2023-06-26T02:45:06;6.80;;;4.00;;
77453;SDS011;66538;53.150;18.160;2023-06-26T02:47:33;8.70;;;4.40;;
77453;SDS011;66538;53.150;18.160;2023-06-26T02:50:00;7.50;;;4.70;;
77453;SDS011;66538;53.150;18.160;2023-06-26T02:52:27;7.30;;;4.40;;
77453;SDS011;66538;53.150;18.160;2023-06-26T02:54:55;7.30;;;4.10;;
77453;SDS011;66538;53.150;18.160;2023-06-26T02:57:21;7.80;;;4.40;;
77453;SDS011;66538;53.150;18.160;2023-06-26T02:59:48;8.90;;;4.90;;
77453;SDS011;66538;53.150;18.160;2023-06-26T03:02:15;8.90;;;4.50;;
77453;SDS011;66538;53.150;18.160;2023-06-26T03:04:44;8.10;;;4.40;;
77453;SDS011;66538;53.150;18.160;2023-06-26T03:07:12;6.60;;;4.30;;
77453;SDS011;66538;53.150;18.160;2023-06-26T03:09:39;7.50;;;4.10;;
77453;SDS011;66538;53.150;18.160;2023-06-26T03:12:07;6.90;;;3.90;;
77453;SDS011;66538;53.150;18.160;2023-06-26T03:14:34;10.60;;;4.40;;
77453;SDS011;66538;53.150;18.160;2023-06-26T03:17:01;7.90;;;4.30;;
77453;SDS011;66538;53.150;18.160;2023-06-26T03:19:30;8.40;;;4.40;;
77453;SDS011;66538;53.150;18.160;2023-06-26T03:22:15;7.90;;;4.60;;
77453;SDS011;66538;53.150;18.160;2023-06-26T03:24:43;7.50;;;4.10;;
77453;SDS011;66538;53.150;18.160;2023-06-26T03:27:10;7.00;;;4.00;;
77453;SDS011;66538;53.150;18.160;2023-06-26T03:29:38;7.90;;;4.20;;
77453;SDS011;66538;53.150;18.160;2023-06-26T03:32:06;7.80;;;4.60;;
77453;SDS011;66538;53.150;18.160;2023-06-26T03:34:34;6.90;;;4.30;;
77453;SDS011;66538;53.150;18.160;2023-06-26T03:37:00;7.50;;;4.70;;
77453;SDS011;66538;53.150;18.160;2023-06-26T03:39:29;7.80;;;4.30;;
77453;SDS011;66538;53.150;18.160;2023-06-26T03:41:55;7.60;;;4.70;;
77453;SDS011;66538;53.150;18.160;2023-06-26T03:44:27;8.00;;;4.80;;
77453;SDS011;66538;53.150;18.160;2023-06-26T03:46:54;5.20;;;2.90;;
77453;SDS011;66538;53.150;18.160;2023-06-26T03:49:20;8.30;;;4.30;;
77453;SDS011;66538;53.150;18.160;2023-06-26T03:51:47;7.40;;;4.20;;
77453;SDS011;66538;53.150;18.160;2023-06-26T03:54:14;8.20;;;4.90;;
77453;SDS011;66538;53.150;18.160;2023-06-26T03:56:42;7.50;;;4.70;;
77453;SDS011;66538;53.150;18.160;2023-06-26T03:59:09;9.30;;;5.30;;
77453;SDS011;66538;53.150;18.160;2023-06-26T04:01:37;8.70;;;4.90;;
77453;SDS011;66538;53.150;18.160;2023-06-26T04:04:05;8.60;;;4.90;;
77453;SDS011;66538;53.150;18.160;2023-06-26T04:06:32;8.60;;;5.30;;
77453;SDS011;66538;53.150;18.160;2023-06-26T04:09:00;7.30;;;4.80;;
77453;SDS011;66538;53.150;18.160;2023-06-26T04:11:27;8.30;;;5.10;;
77453;SDS011;66538;53.150;18.160;2023-06-26T04:13:53;9.10;;;5.10;;
77453;SDS011;66538;53.150;18.160;2023-06-26T04:16:21;9.90;;;6.00;;
77453;SDS011;66538;53.150;18.160;2023-06-26T04:18:51;10.70;;;5.90;;
77453;SDS011;66538;53.150;18.160;2023-06-26T04:21:19;10.50;;;6.00;;
77453;SDS011;66538;53.150;18.160;2023-06-26T04:23:46;11.30;;;6.40;;
77453;SDS011;66538;53.150;18.160;2023-06-26T04:26:14;12.00;;;6.10;;
77453;SDS011;66538;53.150;18.160;2023-06-26T04:28:41;9.00;;;5.70;;
77453;SDS011;66538;53.150;18.160;2023-06-26T04:31:08;9.00;;;5.80;;
77453;SDS011;66538;53.150;18.160;2023-06-26T04:33:36;9.40;;;5.50;;
77453;SDS011;66538;53.150;18.160;2023-06-26T04:36:03;12.30;;;6.90;;
77453;SDS011;66538;53.150;18.160;2023-06-26T04:38:31;9.80;;;6.20;;
77453;SDS011;66538;53.150;18.160;2023-06-26T04:40:59;11.80;;;6.60;;
77453;SDS011;66538;53.150;18.160;2023-06-26T04:43:26;10.10;;;6.80;;
77453;SDS011;66538;53.150;18.160;2023-06-26T04:45:53;10.80;;;6.90;;
77453;SDS011;66538;53.150;18.160;2023-06-26T04:48:20;10.50;;;6.50;;
77453;SDS011;66538;53.150;18.160;2023-06-26T04:50:48;10.90;;;7.20;;
77453;SDS011;66538;53.150;18.160;2023-06-26T04:53:20;11.00;;;7.10;;
77453;SDS011;66538;53.150;18.160;2023-06-26T04:55:51;10.40;;;6.90;;
77453;SDS011;66538;53.150;18.160;2023-06-26T04:58:19;11.50;;;7.60;;
77453;SDS011;66538;53.150;18.160;2023-06-26T05:00:46;12.10;;;7.90;;
77453;SDS011;66538;53.150;18.160;2023-06-26T05:03:13;11.50;;;6.90;;
77453;SDS011;66538;53.150;18.160;2023-06-26T05:05:43;12.30;;;7.80;;
77453;SDS011;66538;53.150;18.160;2023-06-26T05:08:14;13.70;;;7.40;;
77453;SDS011;66538;53.150;18.160;2023-06-26T05:10:41;10.60;;;7.00;;
77453;SDS011;66538;53.150;18.160;2023-06-26T05:13:08;11.80;;;7.20;;
77453;SDS011;66538;53.150;18.160;2023-06-26T05:15:34;11.60;;;6.70;;
77453;SDS011;66538;53.150;18.160;2023-06-26T05:18:01;10.30;;;6.80;;
77453;SDS011;66538;53.150;18.160;2023-06-26T05:20:27;10.80;;;6.50;;
77453;SDS011;66538;53.150;18.160;2023-06-26T05:22:54;10.90;;;6.30;;
77453;SDS011;66538;53.150;18.160;2023-06-26T05:25:21;10.60;;;6.50;;
77453;SDS011;66538;53.150;18.160;2023-06-26T05:27:50;10.90;;;7.10;;
77453;SDS011;66538;53.150;18.160;2023-06-26T05:30:17;13.00;;;7.30;;
77453;SDS011;66538;53.150;18.160;2023-06-26T05:32:45;12.00;;;6.90;;
77453;SDS011;66538;53.150;18.160;2023-06-26T05:35:13;11.60;;;7.00;;
77453;SDS011;66538;53.150;18.160;2023-06-26T05:37:42;9.90;;;6.70;;
77453;SDS011;66538;53.150;18.160;2023-06-26T05:40:10;9.30;;;6.00;;
77453;SDS011;66538;53.150;18.160;2023-06-26T05:42:37;10.10;;;6.90;;
77453;SDS011;66538;53.150;18.160;2023-06-26T05:45:04;12.20;;;7.60;;
77453;SDS011;66538;53.150;18.160;2023-06-26T05:47:31;10.30;;;6.50;;
77453;SDS011;66538;53.150;18.160;2023-06-26T05:49:58;12.30;;;6.70;;
77453;SDS011;66538;53.150;18.160;2023-06-26T05:52:25;9.70;;;6.60;;
77453;SDS011;66538;53.150;18.160;2023-06-26T05:54:52;12.40;;;7.30;;
77453;SDS011;66538;53.150;18.160;2023-06-26T05:57:19;10.50;;;6.60;;
77453;SDS011;66538;53.150;18.160;2023-06-26T05:59:46;11.30;;;7.50;;
77453;SDS011;66538;53.150;18.160;2023-06-26T06:02:12;12.50;;;6.90;;
77453;SDS011;66538;53.150;18.160;2023-06-26T06:04:40;11.50;;;7.30;;
77453;SDS011;66538;53.150;18.160;2023-06-26T06:07:06;9.20;;;6.40;;
77453;SDS011;66538;53.150;18.160;2023-06-26T06:09:33;11.60;;;7.50;;
77453;SDS011;66538;53.150;18.160;2023-06-26T06:12:00;11.00;;;7.10;;
77453;SDS011;66538;53.150;18.160;2023-06-26T06:14:27;10.30;;;7.30;;
77453;SDS011;66538;53.150;18.160;2023-06-26T06:16:54;9.80;;;6.70;;
77453;SDS011;66538;53.150;18.160;2023-06-26T06:19:21;8.90;;;6.30;;
77453;SDS011;66538;53.150;18.160;2023-06-26T06:21:48;9.80;;;6.40;;
77453;SDS011;66538;53.150;18.160;2023-06-26T06:24:15;9.50;;;6.30;;
77453;SDS011;66538;53.150;18.160;2023-06-26T06:26:41;12.10;;;7.60;;
77453;SDS011;66538;53.150;18.160;2023-06-26T06:29:08;10.00;;;6.70;;
77453;SDS011;66538;53.150;18.160;2023-06-26T06:31:35;12.00;;;7.50;;
77453;SDS011;66538;53.150;18.160;2023-06-26T06:34:02;12.30;;;8.00;;
77453;SDS011;66538;53.150;18.160;2023-06-26T06:36:29;10.50;;;6.80;;
77453;SDS011;66538;53.150;18.160;2023-06-26T06:38:55;10.60;;;7.00;;
77453;SDS011;66538;53.150;18.160;2023-06-26T06:41:22;10.30;;;7.10;;
77453;SDS011;66538;53.150;18.160;2023-06-26T06:43:49;8.80;;;6.20;;
77453;SDS011;66538;53.150;18.160;2023-06-26T06:46:15;19.00;;;7.60;;
77453;SDS011;66538;53.150;18.160;2023-06-26T06:48:42;10.70;;;7.00;;
77453;SDS011;66538;53.150;18.160;2023-06-26T06:51:08;10.10;;;6.90;;
77453;SDS011;66538;53.150;18.160;2023-06-26T06:53:35;10.60;;;6.70;;
77453;SDS011;66538;53.150;18.160;2023-06-26T06:56:02;12.70;;;5.80;;
77453;SDS011;66538;53.150;18.160;2023-06-26T06:58:28;10.80;;;6.60;;
77453;SDS011;66538;53.150;18.160;2023-06-26T07:00:55;8.70;;;5.70;;
77453;SDS011;66538;53.150;18.160;2023-06-26T07:03:22;9.60;;;6.10;;
77453;SDS011;66538;53.150;18.160;2023-06-26T07:05:49;13.50;;;7.00;;
77453;SDS011;66538;53.150;18.160;2023-06-26T07:08:15;10.40;;;7.10;;
77453;SDS011;66538;53.150;18.160;2023-06-26T07:10:42;7.80;;;5.70;;
77453;SDS011;66538;53.150;18.160;2023-06-26T07:13:09;9.20;;;6.10;;
77453;SDS011;66538;53.150;18.160;2023-06-26T07:15:35;8.20;;;5.80;;
77453;SDS011;66538;53.150;18.160;2023-06-26T07:18:02;8.10;;;6.00;;
77453;SDS011;66538;53.150;18.160;2023-06-26T07:20:28;7.80;;;5.90;;
77453;SDS011;66538;53.150;18.160;2023-06-26T07:22:55;9.80;;;6.30;;
77453;SDS011;66538;53.150;18.160;2023-06-26T07:25:22;7.90;;;5.10;;
77453;SDS011;66538;53.150;18.160;2023-06-26T07:27:49;8.00;;;5.20;;
77453;SDS011;66538;53.150;18.160;2023-06-26T07:30:15;7.70;;;5.60;;
77453;SDS011;66538;53.150;18.160;2023-06-26T07:32:44;7.60;;;5.40;;
77453;SDS011;66538;53.150;18.160;2023-06-26T07:35:11;8.50;;;5.50;;
77453;SDS011;66538;53.150;18.160;2023-06-26T07:37:37;10.00;;;6.00;;
77453;SDS011;66538;53.150;18.160;2023-06-26T07:40:04;7.10;;;5.00;;
77453;SDS011;66538;53.150;18.160;2023-06-26T07:42:31;9.20;;;5.80;;
77453;SDS011;66538;53.150;18.160;2023-06-26T07:44:58;8.40;;;5.80;;
77453;SDS011;66538;53.150;18.160;2023-06-26T07:47:24;7.60;;;4.80;;
77453;SDS011;66538;53.150;18.160;2023-06-26T07:49:51;8.00;;;4.60;;
77453;SDS011;66538;53.150;18.160;2023-06-26T07:52:18;8.30;;;5.10;;
77453;SDS011;66538;53.150;18.160;2023-06-26T07:54:45;7.30;;;4.80;;
77453;SDS011;66538;53.150;18.160;2023-06-26T07:57:12;7.30;;;5.50;;
77453;SDS011;66538;53.150;18.160;2023-06-26T07:59:39;7.80;;;5.10;;
77453;SDS011;66538;53.150;18.160;2023-06-26T08:02:06;7.70;;;4.70;;
77453;SDS011;66538;53.150;18.160;2023-06-26T08:04:33;7.90;;;4.90;;
77453;SDS011;66538;53.150;18.160;2023-06-26T08:07:00;7.20;;;5.10;;
77453;SDS011;66538;53.150;18.160;2023-06-26T08:09:28;7.00;;;4.80;;
77453;SDS011;66538;53.150;18.160;2023-06-26T08:11:55;6.70;;;4.40;;
77453;SDS011;66538;53.150;18.160;2023-06-26T08:14:22;6.40;;;4.60;;
77453;SDS011;66538;53.150;18.160;2023-06-26T08:16:49;6.80;;;4.60;;
77453;SDS011;66538;53.150;18.160;2023-06-26T08:19:16;8.40;;;5.30;;
77453;SDS011;66538;53.150;18.160;2023-06-26T08:21:43;6.50;;;4.90;;
77453;SDS011;66538;53.150;18.160;2023-06-26T08:24:11;6.80;;;4.80;;
77453;SDS011;66538;53.150;18.160;2023-06-26T08:26:44;8.70;;;4.60;;
77453;SDS011;66538;53.150;18.160;2023-06-26T08:29:13;6.60;;;4.00;;
77453;SDS011;66538;53.150;18.160;2023-06-26T08:31:40;6.70;;;4.60;;
77453;SDS011;66538;53.150;18.160;2023-06-26T08:34:08;7.60;;;4.30;;
77453;SDS011;66538;53.150;18.160;2023-06-26T08:36:35;6.70;;;4.00;;
77453;SDS011;66538;53.150;18.160;2023-06-26T08:39:01;6.00;;;3.60;;
77453;SDS011;66538;53.150;18.160;2023-06-26T08:41:29;6.10;;;3.70;;
77453;SDS011;66538;53.150;18.160;2023-06-26T08:43:56;6.40;;;4.00;;
77453;SDS011;66538;53.150;18.160;2023-06-26T08:46:23;5.60;;;3.60;;
77453;SDS011;66538;53.150;18.160;2023-06-26T08:49:37;7.10;;;4.00;;
77453;SDS011;66538;53.150;18.160;2023-06-26T08:51:49;6.10;;;3.60;;
77453;SDS011;66538;53.150;18.160;2023-06-26T08:54:24;5.40;;;3.50;;
77453;SDS011;66538;53.150;18.160;2023-06-26T08:57:00;6.40;;;3.90;;
77453;SDS011;66538;53.150;18.160;2023-06-26T08:59:28;6.30;;;3.80;;
77453;SDS011;66538;53.150;18.160;2023-06-26T09:01:55;6.10;;;4.10;;
77453;SDS011;66538;53.150;18.160;2023-06-26T09:04:22;7.20;;;4.20;;
77453;SDS011;66538;53.150;18.160;2023-06-26T09:06:49;6.10;;;3.90;;
77453;SDS011;66538;53.150;18.160;2023-06-26T09:09:15;10.20;;;3.90;;
77453;SDS011;66538;53.150;18.160;2023-06-26T09:11:42;6.10;;;3.70;;
77453;SDS011;66538;53.150;18.160;2023-06-26T09:14:08;5.40;;;3.40;;
77453;SDS011;66538;53.150;18.160;2023-06-26T09:16:39;6.60;;;3.70;;
77453;SDS011;66538;53.150;18.160;2023-06-26T09:19:10;5.90;;;3.80;;
77453;SDS011;66538;53.150;18.160;2023-06-26T09:21:40;5.60;;;3.30;;
77453;SDS011;66538;53.150;18.160;2023-06-26T09:24:08;7.20;;;4.10;;
77453;SDS011;66538;53.150;18.160;2023-06-26T09:26:36;6.70;;;4.30;;
77453;SDS011;66538;53.150;18.160;2023-06-26T09:29:05;7.20;;;4.50;;
77453;SDS011;66538;53.150;18.160;2023-06-26T09:31:32;8.00;;;4.10;;
77453;SDS011;66538;53.150;18.160;2023-06-26T09:34:00;7.20;;;4.40;;
77453;SDS011;66538;53.150;18.160;2023-06-26T09:36:28;6.10;;;3.80;;
77453;SDS011;66538;53.150;18.160;2023-06-26T09:39:05;5.40;;;3.50;;
77453;SDS011;66538;53.150;18.160;2023-06-26T09:41:41;6.50;;;3.90;;
77453;SDS011;66538;53.150;18.160;2023-06-26T09:44:10;7.80;;;4.40;;
77453;SDS011;66538;53.150;18.160;2023-06-26T09:46:39;7.30;;;3.80;;
77453;SDS011;66538;53.150;18.160;2023-06-26T09:49:10;6.50;;;4.00;;
77453;SDS011;66538;53.150;18.160;2023-06-26T09:51:39;6.20;;;4.00;;
77453;SDS011;66538;53.150;18.160;2023-06-26T09:54:08;6.20;;;4.30;;
77453;SDS011;66538;53.150;18.160;2023-06-26T09:56:36;5.30;;;3.70;;
77453;SDS011;66538;53.150;18.160;2023-06-26T09:59:03;6.80;;;4.60;;
77453;SDS011;66538;53.150;18.160;2023-06-26T10:01:31;5.90;;;3.80;;
77453;SDS011;66538;53.150;18.160;2023-06-26T10:09:19;6.60;;;3.70;;
77453;SDS011;66538;53.150;18.160;2023-06-26T10:11:48;7.30;;;3.50;;
77453;SDS011;66538;53.150;18.160;2023-06-26T10:14:20;7.30;;;3.80;;
77453;SDS011;66538;53.150;18.160;2023-06-26T10:16:49;5.80;;;4.00;;
77453;SDS011;66538;53.150;18.160;2023-06-26T10:19:19;6.50;;;4.00;;
77453;SDS011;66538;53.150;18.160;2023-06-26T10:21:52;6.00;;;4.50;;
77453;SDS011;66538;53.150;18.160;2023-06-26T10:24:20;5.20;;;3.60;;
77453;SDS011;66538;53.150;18.160;2023-06-26T10:26:50;6.60;;;4.30;;
77453;SDS011;66538;53.150;18.160;2023-06-26T10:29:20;5.30;;;3.70;;
77453;SDS011;66538;53.150;18.160;2023-06-26T10:31:50;5.80;;;4.10;;
77453;SDS011;66538;53.150;18.160;2023-06-26T10:34:19;6.30;;;3.80;;
77453;SDS011;66538;53.150;18.160;2023-06-26T10:36:46;5.70;;;3.50;;
77453;SDS011;66538;53.150;18.160;2023-06-26T10:39:14;5.90;;;3.70;;
77453;SDS011;66538;53.150;18.160;2023-06-26T10:41:41;6.30;;;3.50;;
77453;SDS011;66538;53.150;18.160;2023-06-26T10:46:52;6.40;;;3.90;;
77453;SDS011;66538;53.150;18.160;2023-06-26T10:49:25;6.50;;;3.60;;
77453;SDS011;66538;53.150;18.160;2023-06-26T10:51:52;7.10;;;3.40;;
77453;SDS011;66538;53.150;18.160;2023-06-26T10:54:21;5.40;;;3.80;;
77453;SDS011;66538;53.150;18.160;2023-06-26T10:56:48;5.60;;;3.80;;
77453;SDS011;66538;53.150;18.160;2023-06-26T10:59:20;4.60;;;3.30;;
77453;SDS011;66538;53.150;18.160;2023-06-26T11:01:55;6.10;;;3.70;;
77453;SDS011;66538;53.150;18.160;2023-06-26T11:07:20;5.80;;;3.40;;
77453;SDS011;66538;53.150;18.160;2023-06-26T11:09:58;7.20;;;4.00;;
77453;SDS011;66538;53.150;18.160;2023-06-26T11:15:12;5.30;;;3.50;;
77453;SDS011;66538;53.150;18.160;2023-06-26T11:17:40;6.80;;;3.60;;
77453;SDS011;66538;53.150;18.160;2023-06-26T11:20:09;5.50;;;3.60;;
77453;SDS011;66538;53.150;18.160;2023-06-26T11:22:38;5.10;;;3.50;;
77453;SDS011;66538;53.150;18.160;2023-06-26T11:25:07;5.60;;;3.50;;
77453;SDS011;66538;53.150;18.160;2023-06-26T11:27:39;6.00;;;3.80;;
77453;SDS011;66538;53.150;18.160;2023-06-26T11:32:39;11.30;;;3.60;;
77453;SDS011;66538;53.150;18.160;2023-06-26T11:35:06;6.10;;;3.60;;
77453;SDS011;66538;53.150;18.160;2023-06-26T11:37:36;6.80;;;3.50;;
77453;SDS011;66538;53.150;18.160;2023-06-26T11:40:18;6.30;;;3.40;;
77453;SDS011;66538;53.150;18.160;2023-06-26T11:42:46;5.60;;;3.80;;
77453;SDS011;66538;53.150;18.160;2023-06-26T11:45:13;6.50;;;3.10;;
77453;SDS011;66538;53.150;18.160;2023-06-26T11:47:40;6.80;;;3.90;;
77453;SDS011;66538;53.150;18.160;2023-06-26T11:50:06;7.90;;;4.00;;
77453;SDS011;66538;53.150;18.160;2023-06-26T11:52:41;6.80;;;4.10;;
77453;SDS011;66538;53.150;18.160;2023-06-26T11:55:08;8.00;;;4.10;;
77453;SDS011;66538;53.150;18.160;2023-06-26T11:57:37;5.30;;;3.90;;
77453;SDS011;66538;53.150;18.160;2023-06-26T12:00:13;5.20;;;3.60;;
77453;SDS011;66538;53.150;18.160;2023-06-26T12:02:41;6.90;;;4.30;;
77453;SDS011;66538;53.150;18.160;2023-06-26T12:05:10;6.20;;;4.40;;
77453;SDS011;66538;53.150;18.160;2023-06-26T12:07:38;6.10;;;3.80;;
77453;SDS011;66538;53.150;18.160;2023-06-26T12:10:05;7.30;;;4.00;;
77453;SDS011;66538;53.150;18.160;2023-06-26T12:12:33;5.60;;;3.70;;
77453;SDS011;66538;53.150;18.160;2023-06-26T12:15:00;5.80;;;4.00;;
77453;SDS011;66538;53.150;18.160;2023-06-26T12:17:27;7.40;;;4.30;;
77453;SDS011;66538;53.150;18.160;2023-06-26T12:19:54;5.50;;;4.20;;
77453;SDS011;66538;53.150;18.160;2023-06-26T12:22:20;8.30;;;4.40;;
77453;SDS011;66538;53.150;18.160;2023-06-26T12:24:47;5.70;;;4.00;;
77453;SDS011;66538;53.150;18.160;2023-06-26T12:30:04;9.00;;;3.50;;
77453;SDS011;66538;53.150;18.160;2023-06-26T12:32:32;6.50;;;3.80;;
77453;SDS011;66538;53.150;18.160;2023-06-26T12:34:58;6.20;;;4.10;;
77453;SDS011;66538;53.150;18.160;2023-06-26T12:37:25;5.00;;;3.70;;
77453;SDS011;66538;53.150;18.160;2023-06-26T12:39:53;5.90;;;4.40;;
77453;SDS011;66538;53.150;18.160;2023-06-26T12:42:24;6.20;;;4.40;;
77453;SDS011;66538;53.150;18.160;2023-06-26T12:44:52;4.50;;;3.00;;
77453;SDS011;66538;53.150;18.160;2023-06-26T12:47:26;6.40;;;4.20;;
77453;SDS011;66538;53.150;18.160;2023-06-26T12:49:57;5.30;;;3.70;;
77453;SDS011;66538;53.150;18.160;2023-06-26T12:52:24;5.00;;;3.60;;
77453;SDS011;66538;53.150;18.160;2023-06-26T12:54:51;6.50;;;3.60;;
77453;SDS011;66538;53.150;18.160;2023-06-26T12:57:19;5.10;;;3.40;;
77453;SDS011;66538;53.150;18.160;2023-06-26T12:59:45;6.30;;;4.30;;
77453;SDS011;66538;53.150;18.160;2023-06-26T13:02:12;6.80;;;4.00;;
77453;SDS011;66538;53.150;18.160;2023-06-26T13:04:39;5.10;;;3.70;;
77453;SDS011;66538;53.150;18.160;2023-06-26T13:07:07;5.40;;;3.80;;
77453;SDS011;66538;53.150;18.160;2023-06-26T13:09:35;5.90;;;4.10;;
77453;SDS011;66538;53.150;18.160;2023-06-26T13:12:03;8.10;;;4.10;;
77453;SDS011;66538;53.150;18.160;2023-06-26T13:14:33;5.30;;;3.80;;
77453;SDS011;66538;53.150;18.160;2023-06-26T13:17:00;5.70;;;3.70;;
77453;SDS011;66538;53.150;18.160;2023-06-26T13:19:27;5.40;;;3.90;;
77453;SDS011;66538;53.150;18.160;2023-06-26T13:21:54;6.20;;;4.10;;
77453;SDS011;66538;53.150;18.160;2023-06-26T13:24:20;34.90;;;5.20;;
77453;SDS011;66538;53.150;18.160;2023-06-26T13:26:47;18.00;;;4.50;;
77453;SDS011;66538;53.150;18.160;2023-06-26T13:29:13;5.80;;;3.60;;
77453;SDS011;66538;53.150;18.160;2023-06-26T13:31:40;8.40;;;4.00;;
77453;SDS011;66538;53.150;18.160;2023-06-26T13:34:07;5.40;;;3.80;;
77453;SDS011;66538;53.150;18.160;2023-06-26T13:36:34;5.80;;;3.50;;
77453;SDS011;66538;53.150;18.160;2023-06-26T13:39:01;5.70;;;3.90;;
77453;SDS011;66538;53.150;18.160;2023-06-26T13:41:28;5.80;;;4.10;;
77453;SDS011;66538;53.150;18.160;2023-06-26T13:43:55;7.40;;;3.80;;
77453;SDS011;66538;53.150;18.160;2023-06-26T13:46:21;6.90;;;4.00;;
77453;SDS011;66538;53.150;18.160;2023-06-26T13:48:48;5.60;;;4.00;;
77453;SDS011;66538;53.150;18.160;2023-06-26T13:51:15;6.90;;;4.00;;
77453;SDS011;66538;53.150;18.160;2023-06-26T13:53:41;8.50;;;3.50;;
77453;SDS011;66538;53.150;18.160;2023-06-26T13:56:08;5.40;;;3.70;;
77453;SDS011;66538;53.150;18.160;2023-06-26T13:58:35;6.50;;;3.30;;
77453;SDS011;66538;53.150;18.160;2023-06-26T14:01:02;5.00;;;3.40;;
77453;SDS011;66538;53.150;18.160;2023-06-26T14:03:30;5.00;;;3.80;;
77453;SDS011;66538;53.150;18.160;2023-06-26T14:05:57;4.70;;;3.10;;
77453;SDS011;66538;53.150;18.160;2023-06-26T14:08:24;5.20;;;3.60;;
77453;SDS011;66538;53.150;18.160;2023-06-26T14:10:50;9.40;;;3.40;;
77453;SDS011;66538;53.150;18.160;2023-06-26T14:13:17;4.80;;;3.40;;
77453;SDS011;66538;53.150;18.160;2023-06-26T14:15:44;6.10;;;3.60;;
77453;SDS011;66538;53.150;18.160;2023-06-26T14:18:10;5.30;;;3.20;;
77453;SDS011;66538;53.150;18.160;2023-06-26T14:20:37;5.90;;;3.80;;
77453;SDS011;66538;53.150;18.160;2023-06-26T14:23:04;6.70;;;3.60;;
77453;SDS011;66538;53.150;18.160;2023-06-26T14:25:30;5.80;;;3.90;;
77453;SDS011;66538;53.150;18.160;2023-06-26T14:27:57;5.10;;;3.60;;
77453;SDS011;66538;53.150;18.160;2023-06-26T14:30:24;6.70;;;3.80;;
77453;SDS011;66538;53.150;18.160;2023-06-26T14:32:51;7.00;;;3.50;;
77453;SDS011;66538;53.150;18.160;2023-06-26T14:35:19;8.50;;;3.30;;
77453;SDS011;66538;53.150;18.160;2023-06-26T14:37:47;4.50;;;3.20;;
77453;SDS011;66538;53.150;18.160;2023-06-26T14:40:14;5.60;;;3.70;;
77453;SDS011;66538;53.150;18.160;2023-06-26T14:42:41;4.40;;;3.40;;
77453;SDS011;66538;53.150;18.160;2023-06-26T14:45:09;5.80;;;3.70;;
77453;SDS011;66538;53.150;18.160;2023-06-26T14:47:36;5.90;;;3.80;;
77453;SDS011;66538;53.150;18.160;2023-06-26T14:50:03;5.20;;;3.90;;
77453;SDS011;66538;53.150;18.160;2023-06-26T14:52:31;5.20;;;3.40;;
77453;SDS011;66538;53.150;18.160;2023-06-26T14:54:57;4.60;;;3.40;;
77453;SDS011;66538;53.150;18.160;2023-06-26T14:57:24;5.00;;;3.70;;
77453;SDS011;66538;53.150;18.160;2023-06-26T14:59:50;6.10;;;3.20;;
77453;SDS011;66538;53.150;18.160;2023-06-26T15:02:17;5.10;;;3.50;;
77453;SDS011;66538;53.150;18.160;2023-06-26T15:04:44;6.80;;;3.20;;